sensor_id;sensor_type;location;lat;lon;timestamp;pressure;altitude;pressure_sealevel;temperature;humidity
42887;BME280;29032;56.028;92.904;2023-02-20T00:04:01;100790.88;;;-4.91;50.38
42887;BME280;29032;56.028;92.904;2023-02-20T00:09:05;100804.06;;;-4.86;50.02
42887;BME280;29032;56.028;92.904;2023-02-20T00:14:07;100810.00;;;-4.91;50.30
42887;BME280;29032;56.028;92.904;2023-02-20T00:19:09;100812.78;;;-4.95;50.35
42887;BME280;29032;56.028;92.904;2023-02-20T00:24:13;100823.19;;;-4.86;50.34
42887;BME280;29032;56.028;92.904;2023-02-20T00:29:16;100825.19;;;-4.90;50.45
42887;BME280;29032;56.028;92.904;2023-02-20T00:34:18;100814.03;;;-4.99;50.88
42887;BME280;29032;56.028;92.904;2023-02-20T00:39:22;100814.09;;;-4.79;50.45
42887;BME280;29032;56.028;92.904;2023-02-20T00:44:24;100819.13;;;-4.54;49.94
42887;BME280;29032;56.028;92.904;2023-02-20T00:49:28;100820.78;;;-4.37;49.37
42887;BME280;29032;56.028;92.904;2023-02-20T00:54:44;100818.44;;;-4.19;48.62
42887;BME280;29032;56.028;92.904;2023-02-20T00:59:47;100821.75;;;-4.08;48.00
42887;BME280;29032;56.028;92.904;2023-02-20T01:04:49;100816.91;;;-4.00;47.50
42887;BME280;29032;56.028;92.904;2023-02-20T01:09:53;100836.53;;;-3.85;47.43
42887;BME280;29032;56.028;92.904;2023-02-20T01:14:55;100835.16;;;-3.93;47.43
42887;BME280;29032;56.028;92.904;2023-02-20T01:19:57;100838.38;;;-3.98;47.41
42887;BME280;29032;56.028;92.904;2023-02-20T01:25:00;100832.41;;;-3.93;47.30
42887;BME280;29032;56.028;92.904;2023-02-20T01:30:03;100846.00;;;-3.90;46.99
42887;BME280;29032;56.028;92.904;2023-02-20T01:35:05;100848.31;;;-3.88;46.65
42887;BME280;29032;56.028;92.904;2023-02-20T01:40:14;100847.66;;;-3.96;46.84
42887;BME280;29032;56.028;92.904;2023-02-20T01:45:18;100844.72;;;-4.05;46.70
42887;BME280;29032;56.028;92.904;2023-02-20T01:50:26;100851.09;;;-4.12;46.60
42887;BME280;29032;56.028;92.904;2023-02-20T01:55:36;100855.47;;;-4.14;46.62
42887;BME280;29032;56.028;92.904;2023-02-20T02:00:39;100854.59;;;-4.31;46.28
42887;BME280;29032;56.028;92.904;2023-02-20T02:05:45;100858.75;;;-4.46;46.52
42887;BME280;29032;56.028;92.904;2023-02-20T02:10:52;100867.09;;;-4.53;46.59
42887;BME280;29032;56.028;92.904;2023-02-20T02:16:03;100858.19;;;-4.57;46.81
42887;BME280;29032;56.028;92.904;2023-02-20T02:22:03;100862.13;;;-4.58;46.98
42887;BME280;29032;56.028;92.904;2023-02-20T02:27:51;100861.41;;;-4.63;46.65
42887;BME280;29032;56.028;92.904;2023-02-20T02:38:41;100858.97;;;-4.57;45.98
42887;BME280;29032;56.028;92.904;2023-02-20T02:43:49;100858.63;;;-4.59;45.67
42887;BME280;29032;56.028;92.904;2023-02-20T02:48:59;100868.28;;;-4.54;45.66
42887;BME280;29032;56.028;92.904;2023-02-20T02:54:07;100868.09;;;-4.44;45.56
42887;BME280;29032;56.028;92.904;2023-02-20T02:59:12;100869.56;;;-4.39;45.41
42887;BME280;29032;56.028;92.904;2023-02-20T03:04:15;100878.00;;;-4.30;45.09
42887;BME280;29032;56.028;92.904;2023-02-20T03:09:23;100881.03;;;-4.04;45.03
42887;BME280;29032;56.028;92.904;2023-02-20T03:14:31;100885.94;;;-4.16;44.92
42887;BME280;29032;56.028;92.904;2023-02-20T03:19:38;100899.09;;;-4.11;44.91
42887;BME280;29032;56.028;92.904;2023-02-20T03:24:43;100900.75;;;-3.93;44.33
42887;BME280;29032;56.028;92.904;2023-02-20T03:29:48;100903.91;;;-3.75;43.83
42887;BME280;29032;56.028;92.904;2023-02-20T03:34:54;100901.69;;;-3.60;43.38
42887;BME280;29032;56.028;92.904;2023-02-20T03:40:03;100898.38;;;-3.52;43.40
42887;BME280;29032;56.028;92.904;2023-02-20T03:45:08;100890.50;;;-3.89;42.99
42887;BME280;29032;56.028;92.904;2023-02-20T03:50:12;100907.00;;;-4.36;43.97
42887;BME280;29032;56.028;92.904;2023-02-20T03:55:18;100910.91;;;-4.37;44.35
42887;BME280;29032;56.028;92.904;2023-02-20T04:00:23;100912.09;;;-4.15;44.16
42887;BME280;29032;56.028;92.904;2023-02-20T04:05:28;100912.88;;;-3.94;44.62
42887;BME280;29032;56.028;92.904;2023-02-20T04:10:36;100914.25;;;-4.06;44.11
42887;BME280;29032;56.028;92.904;2023-02-20T04:15:41;100901.56;;;-3.96;43.43
42887;BME280;29032;56.028;92.904;2023-02-20T04:20:45;100904.69;;;-3.94;43.08
42887;BME280;29032;56.028;92.904;2023-02-20T04:26:03;100907.56;;;-4.01;43.17
42887;BME280;29032;56.028;92.904;2023-02-20T04:31:09;100905.31;;;-4.30;43.93
42887;BME280;29032;56.028;92.904;2023-02-20T04:36:13;100883.41;;;-4.26;44.17
42887;BME280;29032;56.028;92.904;2023-02-20T04:41:17;100896.69;;;-3.85;43.34
42887;BME280;29032;56.028;92.904;2023-02-20T04:46:22;100909.66;;;-3.69;42.42
42887;BME280;29032;56.028;92.904;2023-02-20T04:51:24;100904.41;;;-3.80;41.94
42887;BME280;29032;56.028;92.904;2023-02-20T04:56:29;100907.97;;;-3.83;42.13
42887;BME280;29032;56.028;92.904;2023-02-20T05:01:31;100901.44;;;-4.09;41.84
42887;BME280;29032;56.028;92.904;2023-02-20T05:06:39;100894.97;;;-4.19;42.03
42887;BME280;29032;56.028;92.904;2023-02-20T05:11:43;100898.03;;;-4.37;41.79
42887;BME280;29032;56.028;92.904;2023-02-20T05:16:45;100892.19;;;-4.39;42.06
42887;BME280;29032;56.028;92.904;2023-02-20T05:21:48;100893.56;;;-4.27;42.00
42887;BME280;29032;56.028;92.904;2023-02-20T05:26:51;100889.63;;;-4.26;42.21
42887;BME280;29032;56.028;92.904;2023-02-20T05:31:54;100897.94;;;-4.33;41.92
42887;BME280;29032;56.028;92.904;2023-02-20T05:36:56;100895.94;;;-4.29;42.01
42887;BME280;29032;56.028;92.904;2023-02-20T05:41:59;100897.22;;;-4.14;41.66
42887;BME280;29032;56.028;92.904;2023-02-20T05:47:02;100897.81;;;-4.02;41.09
42887;BME280;29032;56.028;92.904;2023-02-20T05:52:05;100892.56;;;-3.93;40.99
42887;BME280;29032;56.028;92.904;2023-02-20T05:57:10;100897.66;;;-3.56;40.86
42887;BME280;29032;56.028;92.904;2023-02-20T06:02:12;100896.16;;;-3.40;40.20
42887;BME280;29032;56.028;92.904;2023-02-20T06:07:14;100892.28;;;-3.23;39.58
42887;BME280;29032;56.028;92.904;2023-02-20T06:12:18;100888.97;;;-3.14;39.52
42887;BME280;29032;56.028;92.904;2023-02-20T06:17:20;100889.56;;;-3.07;39.81
42887;BME280;29032;56.028;92.904;2023-02-20T06:22:22;100893.34;;;-3.01;39.20
42887;BME280;29032;56.028;92.904;2023-02-20T06:27:26;100892.63;;;-3.21;40.31
42887;BME280;29032;56.028;92.904;2023-02-20T06:32:28;100890.34;;;-3.42;39.40
42887;BME280;29032;56.028;92.904;2023-02-20T06:37:30;100883.16;;;-3.72;40.19
42887;BME280;29032;56.028;92.904;2023-02-20T06:42:34;100889.72;;;-3.50;40.87
42887;BME280;29032;56.028;92.904;2023-02-20T06:47:36;100877.25;;;-2.99;40.64
42887;BME280;29032;56.028;92.904;2023-02-20T06:52:38;100879.72;;;-2.55;39.70
42887;BME280;29032;56.028;92.904;2023-02-20T06:57:42;100867.47;;;-2.34;39.32
42887;BME280;29032;56.028;92.904;2023-02-20T07:02:44;100873.81;;;-2.37;38.88
42887;BME280;29032;56.028;92.904;2023-02-20T07:07:46;100868.19;;;-2.95;39.38
42887;BME280;29032;56.028;92.904;2023-02-20T07:12:49;100857.22;;;-3.28;40.48
42887;BME280;29032;56.028;92.904;2023-02-20T07:17:51;100860.31;;;-3.10;40.89
42887;BME280;29032;56.028;92.904;2023-02-20T07:22:54;100862.53;;;-2.72;40.41
42887;BME280;29032;56.028;92.904;2023-02-20T07:27:57;100857.94;;;-2.30;40.11
42887;BME280;29032;56.028;92.904;2023-02-20T07:33:00;100870.25;;;-1.93;39.27
42887;BME280;29032;56.028;92.904;2023-02-20T07:38:02;100856.09;;;-1.62;38.97
42887;BME280;29032;56.028;92.904;2023-02-20T07:43:07;100850.59;;;-1.37;38.57
42887;BME280;29032;56.028;92.904;2023-02-20T07:48:12;100849.75;;;-1.34;38.14
42887;BME280;29032;56.028;92.904;2023-02-20T07:53:16;100850.19;;;-1.48;38.26
42887;BME280;29032;56.028;92.904;2023-02-20T07:58:20;100850.06;;;-1.44;38.73
42887;BME280;29032;56.028;92.904;2023-02-20T08:03:22;100850.97;;;-1.35;38.22
42887;BME280;29032;56.028;92.904;2023-02-20T08:08:24;100864.13;;;-1.04;38.15
42887;BME280;29032;56.028;92.904;2023-02-20T08:13:29;100847.97;;;-1.02;37.31
42887;BME280;29032;56.028;92.904;2023-02-20T08:18:31;100848.41;;;-1.04;37.87
42887;BME280;29032;56.028;92.904;2023-02-20T08:23:33;100834.34;;;-0.93;37.67
42887;BME280;29032;56.028;92.904;2023-02-20T08:28:36;100852.47;;;-0.83;36.81
42887;BME280;29032;56.028;92.904;2023-02-20T08:33:39;100846.97;;;-1.08;37.28
42887;BME280;29032;56.028;92.904;2023-02-20T08:38:41;100852.38;;;-1.17;38.09
42887;BME280;29032;56.028;92.904;2023-02-20T08:43:45;100847.09;;;-1.50;38.26
42887;BME280;29032;56.028;92.904;2023-02-20T08:48:47;100836.78;;;-2.00;39.05
42887;BME280;29032;56.028;92.904;2023-02-20T08:53:49;100838.72;;;-2.14;39.44
42887;BME280;29032;56.028;92.904;2023-02-20T08:58:54;100827.78;;;-2.01;39.82
42887;BME280;29032;56.028;92.904;2023-02-20T09:03:56;100828.31;;;-2.06;39.96
42887;BME280;29032;56.028;92.904;2023-02-20T09:08:58;100832.94;;;-2.32;40.49
42887;BME280;29032;56.028;92.904;2023-02-20T09:14:02;100833.91;;;-2.38;40.77
42887;BME280;29032;56.028;92.904;2023-02-20T09:19:04;100830.88;;;-2.28;40.54
42887;BME280;29032;56.028;92.904;2023-02-20T09:24:06;100834.88;;;-2.45;40.78
42887;BME280;29032;56.028;92.904;2023-02-20T09:29:10;100828.56;;;-2.75;41.64
42887;BME280;29032;56.028;92.904;2023-02-20T09:34:12;100824.34;;;-2.63;41.34
42887;BME280;29032;56.028;92.904;2023-02-20T09:39:14;100824.84;;;-2.52;40.96
42887;BME280;29032;56.028;92.904;2023-02-20T09:44:25;100819.69;;;-2.33;40.32
42887;BME280;29032;56.028;92.904;2023-02-20T09:49:32;100810.25;;;-2.32;40.27
42887;BME280;29032;56.028;92.904;2023-02-20T09:54:37;100803.06;;;-2.26;38.98
42887;BME280;29032;56.028;92.904;2023-02-20T09:59:47;100803.66;;;-2.35;40.19
42887;BME280;29032;56.028;92.904;2023-02-20T10:04:53;100804.53;;;-2.38;39.38
42887;BME280;29032;56.028;92.904;2023-02-20T10:09:58;100804.09;;;-2.36;39.65
42887;BME280;29032;56.028;92.904;2023-02-20T10:15:14;100796.13;;;-2.31;39.83
42887;BME280;29032;56.028;92.904;2023-02-20T10:20:24;100801.22;;;-2.46;39.59
42887;BME280;29032;56.028;92.904;2023-02-20T10:25:30;100802.72;;;-2.74;39.64
42887;BME280;29032;56.028;92.904;2023-02-20T10:30:38;100798.19;;;-2.80;39.82
42887;BME280;29032;56.028;92.904;2023-02-20T10:35:44;100791.44;;;-2.92;40.02
42887;BME280;29032;56.028;92.904;2023-02-20T10:40:52;100804.63;;;-2.87;39.67
42887;BME280;29032;56.028;92.904;2023-02-20T10:46:06;100808.38;;;-2.81;40.94
42887;BME280;29032;56.028;92.904;2023-02-20T10:51:14;100794.75;;;-2.68;41.86
42887;BME280;29032;56.028;92.904;2023-02-20T10:56:21;100802.25;;;-2.56;41.54
42887;BME280;29032;56.028;92.904;2023-02-20T11:01:27;100800.72;;;-2.57;41.42
42887;BME280;29032;56.028;92.904;2023-02-20T11:06:33;100796.53;;;-2.61;41.79
42887;BME280;29032;56.028;92.904;2023-02-20T11:11:39;100800.38;;;-2.59;41.38
42887;BME280;29032;56.028;92.904;2023-02-20T11:16:47;100795.59;;;-2.71;41.73
42887;BME280;29032;56.028;92.904;2023-02-20T11:21:53;100810.00;;;-2.83;42.31
42887;BME280;29032;56.028;92.904;2023-02-20T11:26:59;100809.66;;;-2.85;43.00
42887;BME280;29032;56.028;92.904;2023-02-20T11:32:21;100819.22;;;-2.77;42.30
42887;BME280;29032;56.028;92.904;2023-02-20T11:37:23;100821.91;;;-2.90;42.66
42887;BME280;29032;56.028;92.904;2023-02-20T11:42:31;100821.28;;;-2.98;42.64
42887;BME280;29032;56.028;92.904;2023-02-20T11:47:36;100823.38;;;-3.18;43.24
42887;BME280;29032;56.028;92.904;2023-02-20T11:52:38;100817.69;;;-3.43;44.27
42887;BME280;29032;56.028;92.904;2023-02-20T11:57:56;100828.22;;;-3.62;44.47
42887;BME280;29032;56.028;92.904;2023-02-20T12:03:12;100831.34;;;-3.60;44.29
42887;BME280;29032;56.028;92.904;2023-02-20T12:08:27;100834.56;;;-3.65;44.55
42887;BME280;29032;56.028;92.904;2023-02-20T12:13:35;100838.13;;;-3.68;45.28
42887;BME280;29032;56.028;92.904;2023-02-20T12:18:45;100839.88;;;-3.58;44.88
42887;BME280;29032;56.028;92.904;2023-02-20T12:24:27;100830.00;;;-3.35;44.33
42887;BME280;29032;56.028;92.904;2023-02-20T12:29:40;100825.22;;;-3.31;44.99
42887;BME280;29032;56.028;92.904;2023-02-20T12:34:53;100815.47;;;-3.32;44.35
42887;BME280;29032;56.028;92.904;2023-02-20T12:40:05;100818.44;;;-3.43;44.99
42887;BME280;29032;56.028;92.904;2023-02-20T12:45:18;100820.25;;;-3.36;44.98
42887;BME280;29032;56.028;92.904;2023-02-20T12:50:35;100821.34;;;-3.34;44.52
42887;BME280;29032;56.028;92.904;2023-02-20T12:55:59;100818.28;;;-3.36;44.42
42887;BME280;29032;56.028;92.904;2023-02-20T13:01:05;100819.91;;;-3.38;45.50
42887;BME280;29032;56.028;92.904;2023-02-20T13:06:10;100821.28;;;-3.30;45.18
42887;BME280;29032;56.028;92.904;2023-02-20T13:11:17;100818.22;;;-3.32;45.09
42887;BME280;29032;56.028;92.904;2023-02-20T13:16:21;100827.97;;;-3.31;43.32
42887;BME280;29032;56.028;92.904;2023-02-20T13:21:29;100821.94;;;-3.59;45.86
42887;BME280;29032;56.028;92.904;2023-02-20T13:26:46;100815.69;;;-3.59;44.89
42887;BME280;29032;56.028;92.904;2023-02-20T13:31:51;100817.25;;;-3.78;45.82
42887;BME280;29032;56.028;92.904;2023-02-20T13:36:55;100822.38;;;-3.80;45.51
42887;BME280;29032;56.028;92.904;2023-02-20T13:41:58;100824.06;;;-3.86;45.47
42887;BME280;29032;56.028;92.904;2023-02-20T13:47:04;100808.72;;;-4.00;45.00
42887;BME280;29032;56.028;92.904;2023-02-20T13:52:35;100812.03;;;-4.09;45.07
42887;BME280;29032;56.028;92.904;2023-02-20T13:57:43;100801.66;;;-4.37;44.97
42887;BME280;29032;56.028;92.904;2023-02-20T14:02:47;100800.19;;;-4.65;45.31
42887;BME280;29032;56.028;92.904;2023-02-20T14:07:50;100790.41;;;-4.63;44.29
42887;BME280;29032;56.028;92.904;2023-02-20T14:12:56;100787.75;;;-4.66;44.54
42887;BME280;29032;56.028;92.904;2023-02-20T14:17:59;100778.06;;;-4.71;43.78
42887;BME280;29032;56.028;92.904;2023-02-20T14:23:09;100777.75;;;-4.76;43.99
42887;BME280;29032;56.028;92.904;2023-02-20T14:28:16;100776.59;;;-4.99;43.84
42887;BME280;29032;56.028;92.904;2023-02-20T14:33:21;100771.81;;;-4.95;43.78
42887;BME280;29032;56.028;92.904;2023-02-20T14:38:36;100775.13;;;-4.80;43.83
42887;BME280;29032;56.028;92.904;2023-02-20T14:43:43;100776.41;;;-4.88;43.91
42887;BME280;29032;56.028;92.904;2023-02-20T14:48:46;100775.41;;;-4.98;43.87
42887;BME280;29032;56.028;92.904;2023-02-20T14:53:59;100763.25;;;-4.93;43.88
42887;BME280;29032;56.028;92.904;2023-02-20T14:59:15;100774.50;;;-4.91;44.03
42887;BME280;29032;56.028;92.904;2023-02-20T15:04:18;100768.69;;;-5.17;44.53
42887;BME280;29032;56.028;92.904;2023-02-20T15:09:23;100768.00;;;-5.21;45.19
42887;BME280;29032;56.028;92.904;2023-02-20T15:14:41;100766.25;;;-5.11;44.92
42887;BME280;29032;56.028;92.904;2023-02-20T15:19:43;100767.16;;;-5.18;44.45
42887;BME280;29032;56.028;92.904;2023-02-20T15:24:47;100757.13;;;-5.24;44.42
42887;BME280;29032;56.028;92.904;2023-02-20T15:30:11;100761.47;;;-5.27;44.39
42887;BME280;29032;56.028;92.904;2023-02-20T15:35:25;100763.09;;;-5.33;45.76
42887;BME280;29032;56.028;92.904;2023-02-20T15:40:31;100769.28;;;-5.05;45.30
42887;BME280;29032;56.028;92.904;2023-02-20T15:45:34;100764.44;;;-4.94;44.92
42887;BME280;29032;56.028;92.904;2023-02-20T15:50:37;100754.94;;;-4.86;44.71
42887;BME280;29032;56.028;92.904;2023-02-20T15:55:41;100757.75;;;-4.70;44.25
42887;BME280;29032;56.028;92.904;2023-02-20T16:00:44;100745.22;;;-4.67;44.42
42887;BME280;29032;56.028;92.904;2023-02-20T16:05:46;100748.25;;;-4.62;44.07
42887;BME280;29032;56.028;92.904;2023-02-20T16:10:50;100737.31;;;-4.62;43.93
42887;BME280;29032;56.028;92.904;2023-02-20T16:15:54;100739.72;;;-4.64;43.92
42887;BME280;29032;56.028;92.904;2023-02-20T16:20:57;100727.59;;;-4.63;44.19
42887;BME280;29032;56.028;92.904;2023-02-20T16:26:01;100737.31;;;-4.62;44.54
42887;BME280;29032;56.028;92.904;2023-02-20T16:31:03;100724.16;;;-4.67;43.90
42887;BME280;29032;56.028;92.904;2023-02-20T16:36:05;100721.19;;;-4.76;44.38
42887;BME280;29032;56.028;92.904;2023-02-20T16:41:10;100718.38;;;-4.92;43.82
42887;BME280;29032;56.028;92.904;2023-02-20T16:46:12;100712.13;;;-5.12;44.99
42887;BME280;29032;56.028;92.904;2023-02-20T16:51:15;100709.69;;;-5.07;44.76
42887;BME280;29032;56.028;92.904;2023-02-20T16:56:20;100718.50;;;-4.99;44.52
42887;BME280;29032;56.028;92.904;2023-02-20T17:01:22;100716.22;;;-5.01;44.22
42887;BME280;29032;56.028;92.904;2023-02-20T17:06:25;100716.59;;;-5.02;44.34
42887;BME280;29032;56.028;92.904;2023-02-20T17:11:28;100709.59;;;-5.03;44.08
42887;BME280;29032;56.028;92.904;2023-02-20T17:16:30;100713.78;;;-5.19;44.01
42887;BME280;29032;56.028;92.904;2023-02-20T17:21:32;100708.69;;;-5.40;44.59
42887;BME280;29032;56.028;92.904;2023-02-20T17:26:36;100700.59;;;-5.47;44.82
42887;BME280;29032;56.028;92.904;2023-02-20T17:31:38;100688.28;;;-5.55;44.65
42887;BME280;29032;56.028;92.904;2023-02-20T17:36:40;100694.44;;;-5.51;44.66
42887;BME280;29032;56.028;92.904;2023-02-20T17:41:44;100694.31;;;-5.44;44.44
42887;BME280;29032;56.028;92.904;2023-02-20T17:46:46;100688.47;;;-5.42;44.22
42887;BME280;29032;56.028;92.904;2023-02-20T17:51:50;100685.91;;;-5.53;44.23
42887;BME280;29032;56.028;92.904;2023-02-20T17:56:54;100685.19;;;-5.57;44.39
42887;BME280;29032;56.028;92.904;2023-02-20T18:01:57;100683.34;;;-5.64;44.53
42887;BME280;29032;56.028;92.904;2023-02-20T18:06:59;100667.38;;;-5.65;44.50
42887;BME280;29032;56.028;92.904;2023-02-20T18:12:03;100665.84;;;-5.66;44.38
42887;BME280;29032;56.028;92.904;2023-02-20T18:17:06;100669.34;;;-5.66;44.21
42887;BME280;29032;56.028;92.904;2023-02-20T18:22:08;100661.94;;;-5.65;44.28
42887;BME280;29032;56.028;92.904;2023-02-20T18:27:11;100659.59;;;-5.63;44.20
42887;BME280;29032;56.028;92.904;2023-02-20T18:32:14;100656.50;;;-5.65;44.47
42887;BME280;29032;56.028;92.904;2023-02-20T18:37:16;100657.66;;;-5.66;43.98
42887;BME280;29032;56.028;92.904;2023-02-20T18:42:19;100655.78;;;-5.69;43.99
42887;BME280;29032;56.028;92.904;2023-02-20T18:47:21;100649.25;;;-5.76;44.28
42887;BME280;29032;56.028;92.904;2023-02-20T18:52:24;100646.53;;;-5.76;44.00
42887;BME280;29032;56.028;92.904;2023-02-20T18:57:27;100641.09;;;-5.76;44.05
42887;BME280;29032;56.028;92.904;2023-02-20T19:02:29;100643.69;;;-5.92;44.25
42887;BME280;29032;56.028;92.904;2023-02-20T19:07:31;100647.59;;;-6.20;44.35
42887;BME280;29032;56.028;92.904;2023-02-20T19:12:35;100632.66;;;-6.39;44.82
42887;BME280;29032;56.028;92.904;2023-02-20T19:17:38;100647.41;;;-6.36;44.87
42887;BME280;29032;56.028;92.904;2023-02-20T19:22:40;100649.94;;;-6.49;44.97
42887;BME280;29032;56.028;92.904;2023-02-20T19:27:43;100641.94;;;-6.63;45.02
42887;BME280;29032;56.028;92.904;2023-02-20T19:32:45;100641.22;;;-6.71;45.57
42887;BME280;29032;56.028;92.904;2023-02-20T19:37:48;100632.19;;;-6.64;45.23
42887;BME280;29032;56.028;92.904;2023-02-20T19:42:51;100642.13;;;-6.47;45.09
42887;BME280;29032;56.028;92.904;2023-02-20T19:47:53;100633.00;;;-6.37;45.04
42887;BME280;29032;56.028;92.904;2023-02-20T19:52:55;100638.00;;;-6.32;44.80
42887;BME280;29032;56.028;92.904;2023-02-20T19:57:59;100623.31;;;-6.38;45.10
42887;BME280;29032;56.028;92.904;2023-02-20T20:03:01;100622.59;;;-6.42;45.14
42887;BME280;29032;56.028;92.904;2023-02-20T20:08:04;100624.06;;;-6.37;44.84
42887;BME280;29032;56.028;92.904;2023-02-20T20:13:07;100619.06;;;-6.39;44.79
42887;BME280;29032;56.028;92.904;2023-02-20T20:18:10;100610.03;;;-6.36;44.46
42887;BME280;29032;56.028;92.904;2023-02-20T20:23:13;100603.91;;;-6.40;44.44
42887;BME280;29032;56.028;92.904;2023-02-20T20:28:16;100617.06;;;-6.35;44.48
42887;BME280;29032;56.028;92.904;2023-02-20T20:33:18;100619.50;;;-6.44;44.47
42887;BME280;29032;56.028;92.904;2023-02-20T20:38:21;100611.09;;;-6.57;44.38
42887;BME280;29032;56.028;92.904;2023-02-20T20:43:24;100616.25;;;-6.62;44.29
42887;BME280;29032;56.028;92.904;2023-02-20T20:48:26;100609.38;;;-6.70;44.35
42887;BME280;29032;56.028;92.904;2023-02-20T20:53:28;100621.06;;;-6.73;44.41
42887;BME280;29032;56.028;92.904;2023-02-20T20:58:32;100614.56;;;-6.83;44.25
42887;BME280;29032;56.028;92.904;2023-02-20T21:03:34;100613.97;;;-6.98;44.28
42887;BME280;29032;56.028;92.904;2023-02-20T21:08:36;100608.53;;;-6.98;44.90
42887;BME280;29032;56.028;92.904;2023-02-20T21:13:40;100608.47;;;-6.94;44.93
42887;BME280;29032;56.028;92.904;2023-02-20T21:18:46;100613.13;;;-6.95;44.86
42887;BME280;29032;56.028;92.904;2023-02-20T21:23:48;100600.66;;;-6.92;44.91
42887;BME280;29032;56.028;92.904;2023-02-20T21:28:51;100604.53;;;-6.90;44.71
42887;BME280;29032;56.028;92.904;2023-02-20T21:33:54;100595.28;;;-6.96;45.02
42887;BME280;29032;56.028;92.904;2023-02-20T21:38:56;100601.44;;;-6.92;45.24
42887;BME280;29032;56.028;92.904;2023-02-20T21:44:00;100612.28;;;-6.88;44.94
42887;BME280;29032;56.028;92.904;2023-02-20T21:49:02;100610.69;;;-6.86;44.83
42887;BME280;29032;56.028;92.904;2023-02-20T21:54:04;100614.97;;;-6.85;44.53
42887;BME280;29032;56.028;92.904;2023-02-20T21:59:08;100610.69;;;-6.86;44.72
42887;BME280;29032;56.028;92.904;2023-02-20T22:04:11;100606.16;;;-6.96;44.29
42887;BME280;29032;56.028;92.904;2023-02-20T22:09:15;100605.50;;;-7.07;44.56
42887;BME280;29032;56.028;92.904;2023-02-20T22:14:19;100601.69;;;-7.13;44.45
42887;BME280;29032;56.028;92.904;2023-02-20T22:19:21;100602.50;;;-7.16;44.33
42887;BME280;29032;56.028;92.904;2023-02-20T22:24:23;100600.13;;;-7.14;44.59
42887;BME280;29032;56.028;92.904;2023-02-20T22:29:26;100597.19;;;-7.27;44.50
42887;BME280;29032;56.028;92.904;2023-02-20T22:34:29;100595.00;;;-7.43;44.75
42887;BME280;29032;56.028;92.904;2023-02-20T22:39:31;100605.91;;;-7.46;45.16
42887;BME280;29032;56.028;92.904;2023-02-20T22:44:34;100601.34;;;-7.56;45.38
42887;BME280;29032;56.028;92.904;2023-02-20T22:49:36;100598.44;;;-7.80;45.80
42887;BME280;29032;56.028;92.904;2023-02-20T22:54:39;100588.53;;;-8.01;46.14
42887;BME280;29032;56.028;92.904;2023-02-20T22:59:42;100601.69;;;-7.99;46.15
42887;BME280;29032;56.028;92.904;2023-02-20T23:04:45;100602.34;;;-7.84;45.78
42887;BME280;29032;56.028;92.904;2023-02-20T23:09:47;100600.75;;;-7.75;45.44
42887;BME280;29032;56.028;92.904;2023-02-20T23:14:51;100593.38;;;-7.74;45.33
42887;BME280;29032;56.028;92.904;2023-02-20T23:19:53;100583.75;;;-7.86;45.49
42887;BME280;29032;56.028;92.904;2023-02-20T23:24:55;100580.25;;;-7.86;45.39
42887;BME280;29032;56.028;92.904;2023-02-20T23:29:59;100584.88;;;-7.83;45.63
42887;BME280;29032;56.028;92.904;2023-02-20T23:35:01;100579.84;;;-7.85;45.59
42887;BME280;29032;56.028;92.904;2023-02-20T23:40:04;100579.91;;;-7.88;45.60
42887;BME280;29032;56.028;92.904;2023-02-20T23:45:08;100580.31;;;-7.90;45.60
42887;BME280;29032;56.028;92.904;2023-02-20T23:50:11;100575.31;;;-7.99;45.71
42887;BME280;29032;56.028;92.904;2023-02-20T23:55:13;100573.03;;;-8.04;45.93
